Weather History for KGBG - May, 2013

Change the Weather History Date:

Wednesday, May 1, 2013

  Actual Average Record
Temperature  
Mean Temperature 70 °F -  
Max Temperature 82 °F 67 °F 89 °F (1952)
Min Temperature 58 °F 46 °F 29 °F (1978)
Cooling Degree Days 4    
Growing Degree Days 20 (Base 50)    
Moisture  
Dew Point 51 °F    
Average Humidity 50    
Maximum Humidity 76    
Minimum Humidity 27    
Precipitation  
Precipitation 0.00 in - - ()
Sea Level Pressure  
Sea Level Pressure 30.03 in    
Wind  
Wind Speed 9 mph (SSE)    
Max Wind Speed 15 mph    
Max Gust Speed 21 mph    
Visibility 10 miles    
Events      
Averages and records for this station are not official NWS values.
T = Trace of Precipitation, MM = Missing Value Source: NWS Daily Summary

Daily Weather History Graph

Daily Weather History Graph

Search for Another Location

Airport or City:

Trip Planner

Search our weather history database for the weather conditions in past years. The results will help you decide how hot, cold, wet, or windy it might be!

Date:

Astronomy

May. 01, 2013 Rise Set
Actual Time 5:59 AM CDT 7:58 PM CDT
Civil Twilight 5:29 AM CDT 8:28 PM CDT
Nautical Twilight 4:53 AM CDT 9:05 PM CDT
Astronomical Twilight 4:13 AM CDT 9:44 PM CDT
Moon 1:08 AM CDT (5/1) 11:38 AM CDT (5/1)
Length of Visible Light 14h 58m
Length of Day
13h 59m
Waning Gibbous, 59% of the Moon is Illuminated
May 1
Waning Gibbous
May 2
Last Quarter
May 9
New
May 17
First Quarter
May 24
Full

Hourly Weather History & Observations

Time (CDT) Temp. Dew Point Humidity Pressure Visibility Wind Dir Wind Speed Gust Speed Precip Events Conditions
12:15 AM 66.7 °F 53.1 °F 61% 29.92 in 10.0 mi SSE 8.1 mph - N/A   Clear
12:35 AM 65.7 °F 53.2 °F 64% 29.93 in 10.0 mi SSE 5.8 mph - N/A   Clear
12:55 AM 66.4 °F 53.6 °F 63% 29.93 in 10.0 mi South 9.2 mph - N/A   Clear
1:15 AM 66.7 °F 53.6 °F 63% 29.94 in 10.0 mi South 10.4 mph 16.1 mph N/A   Clear
1:35 AM 66.6 °F 54.0 °F 64% 29.94 in 10.0 mi South 8.1 mph - N/A   Clear
1:55 AM 66.4 °F 54.5 °F 66% 29.94 in 10.0 mi South 9.2 mph - N/A   Clear
2:15 AM 66.2 °F 54.5 °F 66% 29.94 in 10.0 mi South 9.2 mph - N/A   Clear
2:35 AM 65.7 °F 54.7 °F 68% 29.94 in 10.0 mi South 9.2 mph - N/A   Clear
2:55 AM 66.2 °F 55.4 °F 68% 29.95 in 10.0 mi SSE 9.2 mph - N/A   Clear
3:15 AM 65.1 °F 54.5 °F 68% 29.95 in 10.0 mi SSE 10.4 mph 16.1 mph N/A   Clear
3:35 AM 64.6 °F 54.5 °F 70% 29.96 in 10.0 mi South 8.1 mph - N/A   Clear
3:55 AM 64.6 °F 54.1 °F 69% 29.96 in 10.0 mi South 9.2 mph - N/A   Clear
4:15 AM 64.4 °F 54.0 °F 69% 29.97 in 10.0 mi South 9.2 mph - N/A   Clear
4:35 AM 63.9 °F 53.8 °F 70% 29.97 in 10.0 mi South 6.9 mph - N/A   Clear
4:55 AM 62.6 °F 53.6 °F 72% 29.98 in 10.0 mi South 6.9 mph - N/A   Clear
5:15 AM 62.6 °F 53.6 °F 72% 29.98 in 10.0 mi South 5.8 mph - N/A   Clear
5:35 AM 62.1 °F 53.6 °F 74% 29.99 in 10.0 mi SSE 4.6 mph - N/A   Clear
5:55 AM 61.3 °F 53.1 °F 74% 30.00 in 10.0 mi SSE 5.8 mph - N/A   Clear
6:15 AM 60.4 °F 52.7 °F 76% 30.01 in 10.0 mi SSE 4.6 mph - N/A   Clear
6:35 AM 61.7 °F 52.9 °F 73% 30.02 in 10.0 mi SSE 5.8 mph - N/A   Clear
6:55 AM 62.8 °F 52.7 °F 70% 30.02 in 10.0 mi SSE 8.1 mph - N/A   Clear
7:15 AM 63.9 °F 52.9 °F 67% 30.03 in 10.0 mi SSE 5.8 mph - N/A   Clear
7:35 AM 65.5 °F 53.6 °F 65% 30.03 in 10.0 mi SSE 6.9 mph - N/A   Clear
7:55 AM 68.0 °F 53.6 °F 60% 30.04 in 10.0 mi SSE 6.9 mph - N/A   Clear
8:15 AM 69.3 °F 52.9 °F 56% 30.04 in 10.0 mi South 10.4 mph - N/A   Clear
8:35 AM 70.5 °F 53.1 °F 54% 30.05 in 10.0 mi South 9.2 mph - N/A   Clear
8:55 AM 72.3 °F 53.1 °F 51% 30.05 in 10.0 mi South 11.5 mph - N/A   Clear
9:15 AM 73.0 °F 52.7 °F 49% 30.05 in 10.0 mi South 12.7 mph - N/A   Clear
9:35 AM 74.3 °F 52.2 °F 46% 30.05 in 10.0 mi South 13.8 mph - N/A   Clear
9:55 AM 75.4 °F 52.7 °F 45% 30.05 in 10.0 mi South 11.5 mph - N/A   Clear
10:15 AM 76.5 °F 52.2 °F 43% 30.06 in 10.0 mi South 10.4 mph 16.1 mph N/A   Clear
10:35 AM 77.0 °F 52.0 °F 42% 30.06 in 10.0 mi South 15.0 mph 18.4 mph N/A   Clear
10:55 AM 77.0 °F 51.8 °F 41% 30.06 in 10.0 mi South 9.2 mph 19.6 mph N/A   Clear
11:15 AM 78.6 °F 50.5 °F 37% 30.06 in 10.0 mi South 12.7 mph 17.3 mph N/A   Clear
11:35 AM 78.8 °F 49.5 °F 36% 30.06 in 10.0 mi South 11.5 mph 16.1 mph N/A   Clear
11:55 AM 78.8 °F 50.0 °F 36% 30.06 in 10.0 mi SSW 10.4 mph 16.1 mph N/A   Clear
12:15 PM 79.2 °F 48.0 °F 33% 30.06 in 10.0 mi South 13.8 mph 18.4 mph N/A   Clear
12:35 PM 80.1 °F 48.2 °F 33% 30.06 in 10.0 mi SSE 12.7 mph - N/A   Clear
12:55 PM 80.6 °F 48.2 °F 32% 30.06 in 10.0 mi South 12.7 mph 19.6 mph N/A   Clear
1:15 PM 80.1 °F 47.8 °F 32% 30.06 in 10.0 mi South 12.7 mph 17.3 mph N/A   Clear
1:35 PM 80.8 °F 46.4 °F 30% 30.06 in 10.0 mi SSE 5.8 mph - N/A   Clear
1:55 PM 80.6 °F 46.4 °F 30% 30.06 in 10.0 mi South 8.1 mph 20.7 mph N/A   Clear
2:15 PM 80.8 °F 49.1 °F 33% 30.06 in 10.0 mi ESE 8.1 mph 17.3 mph N/A   Clear
2:35 PM 81.7 °F 49.1 °F 32% 30.06 in 10.0 mi South 13.8 mph 17.3 mph N/A   Scattered Clouds
2:55 PM 81.0 °F 48.7 °F 32% 30.06 in 10.0 mi South 11.5 mph 20.7 mph N/A   Clear
3:15 PM 81.5 °F 47.8 °F 31% 30.06 in 10.0 mi South 8.1 mph - N/A   Scattered Clouds
3:35 PM 81.5 °F 46.4 °F 29% 30.05 in 10.0 mi SSE 10.4 mph 19.6 mph N/A   Scattered Clouds
3:55 PM 81.7 °F 45.3 °F 28% 30.05 in 10.0 mi SSE 11.5 mph 18.4 mph N/A   Clear
4:15 PM 81.5 °F 46.8 °F 29% 30.06 in 10.0 mi SSE 13.8 mph 20.7 mph N/A   Scattered Clouds
4:35 PM 80.6 °F 45.3 °F 29% 30.06 in 10.0 mi South 11.5 mph - N/A   Scattered Clouds
5:15 PM 80.6 °F 43.5 °F 27% 30.06 in 10.0 mi South 9.2 mph 16.1 mph N/A   Scattered Clouds
5:35 PM 80.6 °F 44.8 °F 28% 30.05 in 10.0 mi SSE 15.0 mph 19.6 mph N/A   Scattered Clouds
5:55 PM 80.6 °F 45.1 °F 29% 30.05 in 10.0 mi South 9.2 mph 16.1 mph N/A   Clear
6:15 PM 80.1 °F 44.6 °F 29% 30.05 in 10.0 mi SSE 9.2 mph 17.3 mph N/A   Clear
6:35 PM 78.3 °F 46.2 °F 32% 30.05 in 10.0 mi SSE 9.2 mph - N/A   Clear
6:55 PM 77.0 °F 47.5 °F 35% 30.05 in 10.0 mi SE 5.8 mph - N/A   Scattered Clouds
7:15 PM 76.8 °F 47.7 °F 36% 30.06 in 10.0 mi SE 5.8 mph - N/A   Scattered Clouds
7:35 PM 76.3 °F 47.8 °F 37% 30.06 in 10.0 mi SE 4.6 mph - N/A   Scattered Clouds
7:55 PM 75.0 °F 48.6 °F 39% 30.06 in 10.0 mi SE 4.6 mph - N/A   Clear
8:15 PM 73.8 °F 49.5 °F 42% 30.07 in 10.0 mi SE 3.5 mph - N/A   Scattered Clouds
8:35 PM 72.5 °F 50.4 °F 46% 30.07 in 10.0 mi SE 3.5 mph - N/A   Mostly Cloudy
8:55 PM 72.5 °F 50.9 °F 47% 30.08 in 10.0 mi SE 3.5 mph - N/A   Mostly Cloudy
9:35 PM 71.6 °F 52.0 °F 50% 30.09 in 10.0 mi Calm Calm - N/A   Mostly Cloudy
9:55 PM 70.3 °F 51.8 °F 52% 30.10 in 10.0 mi SE 4.6 mph - N/A   Scattered Clouds
10:15 PM 70.5 °F 51.8 °F 51% 30.10 in 10.0 mi SE 4.6 mph - N/A   Clear
10:35 PM 67.6 °F 51.8 °F 57% 30.11 in 10.0 mi West 12.7 mph - N/A   Mostly Cloudy
10:55 PM 62.4 °F 48.7 °F 61% 30.12 in 10.0 mi West 10.4 mph - N/A   Mostly Cloudy
11:15 PM 59.9 °F 48.2 °F 65% 30.11 in 10.0 mi WNW 6.9 mph - N/A   Scattered Clouds
11:35 PM 58.5 °F 48.2 °F 69% 30.12 in 10.0 mi West 6.9 mph - N/A   Clear
11:55 PM 58.1 °F 48.2 °F 70% 30.12 in 10.0 mi NNW 4.6 mph - N/A   Clear